sensor_id;sensor_type;location;lat;lon;timestamp;pressure;altitude;pressure_sealevel;temperature;humidity
32875;BME280;40468;42.128;24.750;2023-02-14T00:00:28;101130.66;;;4.22;48.54
32875;BME280;40468;42.128;24.750;2023-02-14T00:01:59;101129.84;;;4.23;48.53
32875;BME280;40468;42.128;24.750;2023-02-14T00:03:30;101122.09;;;4.22;48.58
32875;BME280;40468;42.128;24.750;2023-02-14T00:05:02;101122.94;;;4.22;48.55
32875;BME280;40468;42.128;24.750;2023-02-14T00:06:35;101125.50;;;4.22;48.54
32875;BME280;40468;42.128;24.750;2023-02-14T00:08:08;101126.38;;;4.21;48.45
32875;BME280;40468;42.128;24.750;2023-02-14T00:09:39;101116.94;;;4.20;48.51
32875;BME280;40468;42.128;24.750;2023-02-14T00:11:11;101115.19;;;4.19;48.54
32875;BME280;40468;42.128;24.750;2023-02-14T00:12:43;101116.94;;;4.17;48.57
32875;BME280;40468;42.128;24.750;2023-02-14T00:14:14;101109.16;;;4.13;48.65
32875;BME280;40468;42.128;24.750;2023-02-14T00:16:03;101110.91;;;4.12;48.58
32875;BME280;40468;42.128;24.750;2023-02-14T00:17:35;101109.16;;;4.09;48.58
32875;BME280;40468;42.128;24.750;2023-02-14T00:19:07;101108.28;;;4.07;48.61
32875;BME280;40468;42.128;24.750;2023-02-14T00:20:37;101123.75;;;4.07;48.59
32875;BME280;40468;42.128;24.750;2023-02-14T00:22:10;101119.47;;;4.06;48.57
32875;BME280;40468;42.128;24.750;2023-02-14T00:23:42;101120.34;;;4.08;48.42
32875;BME280;40468;42.128;24.750;2023-02-14T00:25:13;101122.91;;;4.08;48.43
32875;BME280;40468;42.128;24.750;2023-02-14T00:26:45;101123.78;;;4.09;48.40
32875;BME280;40468;42.128;24.750;2023-02-14T00:28:16;101129.78;;;4.08;48.36
32875;BME280;40468;42.128;24.750;2023-02-14T00:29:47;101127.19;;;4.06;48.32
32875;BME280;40468;42.128;24.750;2023-02-14T00:31:19;101128.06;;;4.04;48.50
32875;BME280;40468;42.128;24.750;2023-02-14T00:32:50;101122.91;;;4.04;48.38
32875;BME280;40468;42.128;24.750;2023-02-14T00:34:21;101120.31;;;4.04;48.37
32875;BME280;40468;42.128;24.750;2023-02-14T00:35:52;101114.28;;;4.05;48.35
32875;BME280;40468;42.128;24.750;2023-02-14T00:37:25;101119.47;;;4.08;48.28
32875;BME280;40468;42.128;24.750;2023-02-14T00:38:56;101115.16;;;4.07;48.29
32875;BME280;40468;42.128;24.750;2023-02-14T00:40:27;101122.91;;;4.08;48.21
32875;BME280;40468;42.128;24.750;2023-02-14T00:41:59;101116.03;;;4.07;48.30
32875;BME280;40468;42.128;24.750;2023-02-14T00:43:30;101115.16;;;4.07;48.17
32875;BME280;40468;42.128;24.750;2023-02-14T00:45:01;101116.88;;;4.05;48.11
32875;BME280;40468;42.128;24.750;2023-02-14T00:46:32;101115.19;;;4.05;48.17
32875;BME280;40468;42.128;24.750;2023-02-14T00:48:03;101117.75;;;4.07;47.97
32875;BME280;40468;42.128;24.750;2023-02-14T00:49:35;101114.31;;;4.06;48.07
32875;BME280;40468;42.128;24.750;2023-02-14T00:51:05;101116.91;;;4.06;47.98
32875;BME280;40468;42.128;24.750;2023-02-14T00:52:39;101117.78;;;4.08;47.91
32875;BME280;40468;42.128;24.750;2023-02-14T00:54:10;101125.50;;;4.08;47.81
32875;BME280;40468;42.128;24.750;2023-02-14T00:55:43;101116.91;;;4.09;47.83
32875;BME280;40468;42.128;24.750;2023-02-14T00:57:14;101117.78;;;4.12;47.74
32875;BME280;40468;42.128;24.750;2023-02-14T00:58:46;101116.06;;;4.12;47.64
32875;BME280;40468;42.128;24.750;2023-02-14T01:00:17;101119.47;;;4.13;47.70
32875;BME280;40468;42.128;24.750;2023-02-14T01:01:49;101125.50;;;4.10;47.69
32875;BME280;40468;42.128;24.750;2023-02-14T01:03:21;101125.47;;;4.07;47.71
32875;BME280;40468;42.128;24.750;2023-02-14T01:04:52;101121.16;;;4.04;47.75
32875;BME280;40468;42.128;24.750;2023-02-14T01:06:24;101116.00;;;4.01;47.69
32875;BME280;40468;42.128;24.750;2023-02-14T01:07:56;101126.31;;;4.01;47.67
32875;BME280;40468;42.128;24.750;2023-02-14T01:09:27;101120.28;;;3.99;47.77
32875;BME280;40468;42.128;24.750;2023-02-14T01:11:05;101120.31;;;3.98;47.80
32875;BME280;40468;42.128;24.750;2023-02-14T01:12:36;101112.56;;;3.99;47.69
32875;BME280;40468;42.128;24.750;2023-02-14T01:14:08;101116.88;;;4.00;47.70
32875;BME280;40468;42.128;24.750;2023-02-14T01:15:41;101107.44;;;4.01;47.56
32875;BME280;40468;42.128;24.750;2023-02-14T01:17:12;101116.03;;;4.03;47.67
32875;BME280;40468;42.128;24.750;2023-02-14T01:18:43;101105.69;;;4.01;47.53
32875;BME280;40468;42.128;24.750;2023-02-14T01:20:14;101099.69;;;4.01;47.44
32875;BME280;40468;42.128;24.750;2023-02-14T01:21:46;101097.97;;;4.00;47.55
32875;BME280;40468;42.128;24.750;2023-02-14T01:23:18;101097.09;;;3.96;47.59
32875;BME280;40468;42.128;24.750;2023-02-14T01:24:49;101089.34;;;3.96;47.54
32875;BME280;40468;42.128;24.750;2023-02-14T01:26:21;101089.34;;;3.96;47.51
32875;BME280;40468;42.128;24.750;2023-02-14T01:27:53;101085.09;;;3.94;47.55
32875;BME280;40468;42.128;24.750;2023-02-14T01:29:23;101087.63;;;3.92;47.60
32875;BME280;40468;42.128;24.750;2023-02-14T01:30:55;101081.63;;;3.92;47.52
32875;BME280;40468;42.128;24.750;2023-02-14T01:32:25;101087.66;;;3.91;47.57
32875;BME280;40468;42.128;24.750;2023-02-14T01:34:00;101080.75;;;3.90;47.64
32875;BME280;40468;42.128;24.750;2023-02-14T01:35:35;101080.78;;;3.91;47.51
32875;BME280;40468;42.128;24.750;2023-02-14T01:37:07;101088.50;;;3.91;47.51
32875;BME280;40468;42.128;24.750;2023-02-14T01:38:40;101083.34;;;3.93;47.58
32875;BME280;40468;42.128;24.750;2023-02-14T01:40:11;101091.06;;;3.93;47.55
32875;BME280;40468;42.128;24.750;2023-02-14T01:41:44;101095.38;;;3.94;47.62
32875;BME280;40468;42.128;24.750;2023-02-14T01:43:17;101091.06;;;3.96;47.55
32875;BME280;40468;42.128;24.750;2023-02-14T01:44:55;101095.41;;;3.97;47.50
32875;BME280;40468;42.128;24.750;2023-02-14T01:46:28;101091.94;;;3.98;47.41
32875;BME280;40468;42.128;24.750;2023-02-14T01:47:59;101091.94;;;3.99;47.41
32875;BME280;40468;42.128;24.750;2023-02-14T01:49:31;101088.50;;;3.99;47.48
32875;BME280;40468;42.128;24.750;2023-02-14T01:51:05;101088.50;;;3.99;47.56
32875;BME280;40468;42.128;24.750;2023-02-14T01:52:38;101091.94;;;3.99;47.58
32875;BME280;40468;42.128;24.750;2023-02-14T01:54:13;101088.50;;;4.02;47.52
32875;BME280;40468;42.128;24.750;2023-02-14T01:55:46;101092.81;;;4.04;47.39
32875;BME280;40468;42.128;24.750;2023-02-14T01:57:18;101083.38;;;4.06;47.36
32875;BME280;40468;42.128;24.750;2023-02-14T01:58:52;101080.81;;;4.06;47.32
32875;BME280;40468;42.128;24.750;2023-02-14T02:00:26;101082.53;;;4.09;47.30
32875;BME280;40468;42.128;24.750;2023-02-14T02:02:15;101069.66;;;4.09;47.35
32875;BME280;40468;42.128;24.750;2023-02-14T02:03:53;101066.19;;;4.10;47.34
32875;BME280;40468;42.128;24.750;2023-02-14T02:05:25;101068.78;;;4.12;47.35
32875;BME280;40468;42.128;24.750;2023-02-14T02:06:58;101067.94;;;4.13;47.42
32875;BME280;40468;42.128;24.750;2023-02-14T02:08:30;101065.34;;;4.13;47.33
32875;BME280;40468;42.128;24.750;2023-02-14T02:10:04;101063.63;;;4.13;47.30
32875;BME280;40468;42.128;24.750;2023-02-14T02:11:36;101062.78;;;4.14;47.20
32875;BME280;40468;42.128;24.750;2023-02-14T02:13:13;101055.88;;;4.16;47.19
32875;BME280;40468;42.128;24.750;2023-02-14T02:14:44;101055.88;;;4.16;47.20
32875;BME280;40468;42.128;24.750;2023-02-14T02:18:07;101057.63;;;4.14;47.16
32875;BME280;40468;42.128;24.750;2023-02-14T02:23:27;101045.56;;;4.13;47.13
32875;BME280;40468;42.128;24.750;2023-02-14T02:25:07;101045.56;;;4.13;47.23
32875;BME280;40468;42.128;24.750;2023-02-14T02:26:55;101043.88;;;4.12;47.23
32875;BME280;40468;42.128;24.750;2023-02-14T02:28:39;101044.75;;;4.14;47.29
32875;BME280;40468;42.128;24.750;2023-02-14T02:32:24;101047.31;;;4.19;47.05
32875;BME280;40468;42.128;24.750;2023-02-14T02:35:56;101043.88;;;4.24;46.97
32875;BME280;40468;42.128;24.750;2023-02-14T02:37:33;101043.00;;;4.25;46.94
32875;BME280;40468;42.128;24.750;2023-02-14T02:39:09;101035.28;;;4.27;46.92
32875;BME280;40468;42.128;24.750;2023-02-14T02:40:47;101030.09;;;4.28;46.90
32875;BME280;40468;42.128;24.750;2023-02-14T02:42:30;101039.59;;;4.29;46.78
32875;BME280;40468;42.128;24.750;2023-02-14T02:44:07;101045.59;;;4.30;46.74
32875;BME280;40468;42.128;24.750;2023-02-14T02:45:44;101046.44;;;4.30;46.86
32875;BME280;40468;42.128;24.750;2023-02-14T02:47:36;101049.03;;;4.30;46.90
32875;BME280;40468;42.128;24.750;2023-02-14T02:49:12;101051.59;;;4.30;46.80
32875;BME280;40468;42.128;24.750;2023-02-14T02:51:10;101052.47;;;4.29;46.78
32875;BME280;40468;42.128;24.750;2023-02-14T02:53:03;101041.28;;;4.30;46.79
32875;BME280;40468;42.128;24.750;2023-02-14T02:54:38;101040.44;;;4.30;46.76
32875;BME280;40468;42.128;24.750;2023-02-14T02:56:12;101048.16;;;4.28;46.90
32875;BME280;40468;42.128;24.750;2023-02-14T02:58:02;101044.72;;;4.28;46.84
32875;BME280;40468;42.128;24.750;2023-02-14T02:59:35;101038.69;;;4.26;46.81
32875;BME280;40468;42.128;24.750;2023-02-14T03:01:09;101033.56;;;4.24;46.94
32875;BME280;40468;42.128;24.750;2023-02-14T03:02:42;101031.84;;;4.23;46.97
32875;BME280;40468;42.128;24.750;2023-02-14T03:04:29;101034.41;;;4.22;46.91
32875;BME280;40468;42.128;24.750;2023-02-14T03:06:21;101032.69;;;4.19;46.93
32875;BME280;40468;42.128;24.750;2023-02-14T03:07:53;101032.72;;;4.18;46.97
32875;BME280;40468;42.128;24.750;2023-02-14T03:11:13;101022.38;;;4.15;46.93
32875;BME280;40468;42.128;24.750;2023-02-14T03:12:47;101023.25;;;4.12;47.05
32875;BME280;40468;42.128;24.750;2023-02-14T03:14:21;101012.94;;;4.09;47.05
32875;BME280;40468;42.128;24.750;2023-02-14T03:17:51;101016.34;;;4.05;47.16
32875;BME280;40468;42.128;24.750;2023-02-14T03:19:30;101015.50;;;4.03;47.32
32875;BME280;40468;42.128;24.750;2023-02-14T03:21:23;101015.47;;;3.98;47.29
32875;BME280;40468;42.128;24.750;2023-02-14T03:22:56;101018.06;;;3.97;47.38
32875;BME280;40468;42.128;24.750;2023-02-14T03:24:34;101013.78;;;3.97;47.50
32875;BME280;40468;42.128;24.750;2023-02-14T03:26:11;101007.75;;;3.95;47.35
32875;BME280;40468;42.128;24.750;2023-02-14T03:27:45;101009.47;;;3.93;47.45
32875;BME280;40468;42.128;24.750;2023-02-14T03:29:20;101000.03;;;3.95;47.49
32875;BME280;40468;42.128;24.750;2023-02-14T03:30:56;101000.00;;;3.92;47.54
32875;BME280;40468;42.128;24.750;2023-02-14T03:32:33;101008.59;;;3.93;47.59
32875;BME280;40468;42.128;24.750;2023-02-14T03:34:09;101004.31;;;3.92;47.62
32875;BME280;40468;42.128;24.750;2023-02-14T03:35:45;101004.31;;;3.90;47.65
32875;BME280;40468;42.128;24.750;2023-02-14T03:37:22;100998.31;;;3.91;47.76
32875;BME280;40468;42.128;24.750;2023-02-14T03:38:55;100992.28;;;3.91;47.81
32875;BME280;40468;42.128;24.750;2023-02-14T03:40:31;100997.44;;;3.89;47.88
32875;BME280;40468;42.128;24.750;2023-02-14T03:42:05;100999.16;;;3.88;47.92
32875;BME280;40468;42.128;24.750;2023-02-14T03:43:38;101008.59;;;3.90;47.97
32875;BME280;40468;42.128;24.750;2023-02-14T03:45:12;101010.34;;;3.91;47.86
32875;BME280;40468;42.128;24.750;2023-02-14T03:46:46;101010.31;;;3.92;47.75
32875;BME280;40468;42.128;24.750;2023-02-14T03:48:21;101002.59;;;3.92;47.71
32875;BME280;40468;42.128;24.750;2023-02-14T03:49:55;101002.59;;;3.92;47.74
32875;BME280;40468;42.128;24.750;2023-02-14T03:51:26;101001.72;;;3.93;47.81
32875;BME280;40468;42.128;24.750;2023-02-14T03:53:04;100996.56;;;3.93;47.70
32875;BME280;40468;42.128;24.750;2023-02-14T03:54:38;101000.03;;;3.94;47.63
32875;BME280;40468;42.128;24.750;2023-02-14T03:56:11;101006.88;;;3.92;47.77
32875;BME280;40468;42.128;24.750;2023-02-14T03:57:45;101016.31;;;3.90;47.56
32875;BME280;40468;42.128;24.750;2023-02-14T03:59:20;101021.47;;;3.93;47.59
32875;BME280;40468;42.128;24.750;2023-02-14T04:00:53;101017.19;;;3.93;47.51
32875;BME280;40468;42.128;24.750;2023-02-14T04:02:30;101016.34;;;3.93;47.42
32875;BME280;40468;42.128;24.750;2023-02-14T04:04:03;101027.50;;;3.93;47.45
32875;BME280;40468;42.128;24.750;2023-02-14T04:05:35;101023.22;;;3.94;47.42
32875;BME280;40468;42.128;24.750;2023-02-14T04:07:11;101023.22;;;3.94;47.38
32875;BME280;40468;42.128;24.750;2023-02-14T04:08:44;101022.34;;;3.95;47.40
32875;BME280;40468;42.128;24.750;2023-02-14T04:10:16;101017.19;;;3.96;47.33
32875;BME280;40468;42.128;24.750;2023-02-14T04:11:47;101008.59;;;3.96;47.25
32875;BME280;40468;42.128;24.750;2023-02-14T04:13:19;101006.03;;;3.96;47.28
32875;BME280;40468;42.128;24.750;2023-02-14T04:14:51;100990.56;;;3.96;47.33
32875;BME280;40468;42.128;24.750;2023-02-14T04:16:22;100987.97;;;3.96;47.29
32875;BME280;40468;42.128;24.750;2023-02-14T04:17:54;100998.31;;;3.97;47.27
32875;BME280;40468;42.128;24.750;2023-02-14T04:19:43;100994.00;;;3.96;47.33
32875;BME280;40468;42.128;24.750;2023-02-14T04:21:13;100994.88;;;3.97;47.29
32875;BME280;40468;42.128;24.750;2023-02-14T04:22:45;100989.72;;;3.95;47.34
32875;BME280;40468;42.128;24.750;2023-02-14T04:24:17;100982.84;;;3.96;47.37
32875;BME280;40468;42.128;24.750;2023-02-14T04:25:49;100980.28;;;3.94;47.34
32875;BME280;40468;42.128;24.750;2023-02-14T04:27:21;100983.69;;;3.92;47.49
32875;BME280;40468;42.128;24.750;2023-02-14T04:28:52;100985.41;;;3.90;47.38
32875;BME280;40468;42.128;24.750;2023-02-14T04:30:24;100975.94;;;3.87;47.46
32875;BME280;40468;42.128;24.750;2023-02-14T04:31:56;100973.38;;;3.85;47.61
32875;BME280;40468;42.128;24.750;2023-02-14T04:33:27;100971.66;;;3.83;47.61
32875;BME280;40468;42.128;24.750;2023-02-14T04:34:59;100973.38;;;3.81;47.64
32875;BME280;40468;42.128;24.750;2023-02-14T04:36:30;100976.81;;;3.80;47.62
32875;BME280;40468;42.128;24.750;2023-02-14T04:38:02;100980.25;;;3.80;47.61
32875;BME280;40468;42.128;24.750;2023-02-14T04:39:35;100967.34;;;3.80;47.67
32875;BME280;40468;42.128;24.750;2023-02-14T04:41:05;100967.34;;;3.80;47.48
32875;BME280;40468;42.128;24.750;2023-02-14T04:42:37;100968.22;;;3.81;47.58
32875;BME280;40468;42.128;24.750;2023-02-14T04:44:09;100963.06;;;3.79;47.48
32875;BME280;40468;42.128;24.750;2023-02-14T04:45:40;100958.78;;;3.80;47.51
32875;BME280;40468;42.128;24.750;2023-02-14T04:47:12;100958.78;;;3.80;47.48
32875;BME280;40468;42.128;24.750;2023-02-14T04:48:43;100954.47;;;3.80;47.43
32875;BME280;40468;42.128;24.750;2023-02-14T04:50:15;100952.78;;;3.82;47.23
32875;BME280;40468;42.128;24.750;2023-02-14T04:51:47;100946.75;;;3.85;47.30
32875;BME280;40468;42.128;24.750;2023-02-14T04:53:18;100956.19;;;3.84;47.17
32875;BME280;40468;42.128;24.750;2023-02-14T04:54:51;100945.88;;;3.84;47.20
32875;BME280;40468;42.128;24.750;2023-02-14T04:56:23;100948.47;;;3.86;47.08
32875;BME280;40468;42.128;24.750;2023-02-14T04:57:57;100947.63;;;3.88;47.06
32875;BME280;40468;42.128;24.750;2023-02-14T04:59:28;100951.91;;;3.88;46.97
32875;BME280;40468;42.128;24.750;2023-02-14T05:01:00;100948.47;;;3.86;47.01
32875;BME280;40468;42.128;24.750;2023-02-14T05:02:31;100941.59;;;3.86;47.01
32875;BME280;40468;42.128;24.750;2023-02-14T05:04:03;100944.19;;;3.85;46.99
32875;BME280;40468;42.128;24.750;2023-02-14T05:05:35;100942.47;;;3.82;47.08
32875;BME280;40468;42.128;24.750;2023-02-14T05:07:06;100938.16;;;3.80;47.07
32875;BME280;40468;42.128;24.750;2023-02-14T05:08:38;100933.00;;;3.78;47.16
32875;BME280;40468;42.128;24.750;2023-02-14T05:10:11;100929.56;;;3.76;47.22
32875;BME280;40468;42.128;24.750;2023-02-14T05:11:42;100922.69;;;3.74;47.22
32875;BME280;40468;42.128;24.750;2023-02-14T05:13:14;100918.41;;;3.71;47.30
32875;BME280;40468;42.128;24.750;2023-02-14T05:14:46;100920.09;;;3.69;47.38
32875;BME280;40468;42.128;24.750;2023-02-14T05:16:18;100917.53;;;3.68;47.35
32875;BME280;40468;42.128;24.750;2023-02-14T05:17:49;100926.13;;;3.68;47.43
32875;BME280;40468;42.128;24.750;2023-02-14T05:19:21;100923.53;;;3.67;47.41
32875;BME280;40468;42.128;24.750;2023-02-14T05:20:53;100934.72;;;3.67;47.47
32875;BME280;40468;42.128;24.750;2023-02-14T05:22:25;100928.69;;;3.67;47.51
32875;BME280;40468;42.128;24.750;2023-02-14T05:23:56;100927.00;;;3.70;47.57
32875;BME280;40468;42.128;24.750;2023-02-14T05:25:30;100936.41;;;3.70;47.65
32875;BME280;40468;42.128;24.750;2023-02-14T05:27:01;100931.31;;;3.73;47.69
32875;BME280;40468;42.128;24.750;2023-02-14T05:28:33;100939.00;;;3.74;47.72
32875;BME280;40468;42.128;24.750;2023-02-14T05:30:05;100938.16;;;3.75;47.65
32875;BME280;40468;42.128;24.750;2023-02-14T05:31:37;100949.31;;;3.77;47.58
32875;BME280;40468;42.128;24.750;2023-02-14T05:33:08;100948.44;;;3.75;47.68
32875;BME280;40468;42.128;24.750;2023-02-14T05:34:39;100946.75;;;3.76;47.62
32875;BME280;40468;42.128;24.750;2023-02-14T05:36:10;100948.44;;;3.75;47.76
32875;BME280;40468;42.128;24.750;2023-02-14T05:37:42;100939.00;;;3.74;47.86
32875;BME280;40468;42.128;24.750;2023-02-14T05:39:14;100936.44;;;3.73;47.96
32875;BME280;40468;42.128;24.750;2023-02-14T05:40:47;100939.03;;;3.73;47.98
32875;BME280;40468;42.128;24.750;2023-02-14T05:42:18;100941.59;;;3.71;48.14
32875;BME280;40468;42.128;24.750;2023-02-14T05:43:50;100940.72;;;3.72;48.14
32875;BME280;40468;42.128;24.750;2023-02-14T05:45:21;100939.88;;;3.76;48.10
32875;BME280;40468;42.128;24.750;2023-02-14T05:46:53;100941.59;;;3.76;48.10
32875;BME280;40468;42.128;24.750;2023-02-14T05:48:25;100938.16;;;3.77;48.19
32875;BME280;40468;42.128;24.750;2023-02-14T05:49:56;100936.47;;;3.79;48.28
32875;BME280;40468;42.128;24.750;2023-02-14T05:51:28;100935.56;;;3.81;48.11
32875;BME280;40468;42.128;24.750;2023-02-14T05:52:59;100939.00;;;3.83;48.09
32875;BME280;40468;42.128;24.750;2023-02-14T05:54:31;100927.84;;;3.84;48.46
32875;BME280;40468;42.128;24.750;2023-02-14T05:56:04;100930.44;;;3.87;48.08
32875;BME280;40468;42.128;24.750;2023-02-14T05:57:36;100908.13;;;3.85;48.28
32875;BME280;40468;42.128;24.750;2023-02-14T05:59:08;100917.56;;;3.92;48.01
32875;BME280;40468;42.128;24.750;2023-02-14T06:00:39;100910.66;;;3.96;48.05
32875;BME280;40468;42.128;24.750;2023-02-14T06:02:11;100918.41;;;4.00;47.91
32875;BME280;40468;42.128;24.750;2023-02-14T06:03:43;100914.97;;;4.04;47.90
32875;BME280;40468;42.128;24.750;2023-02-14T06:05:14;100917.53;;;4.07;47.85
32875;BME280;40468;42.128;24.750;2023-02-14T06:06:47;100914.13;;;4.12;47.72
32875;BME280;40468;42.128;24.750;2023-02-14T06:08:18;100922.69;;;4.17;47.65
32875;BME280;40468;42.128;24.750;2023-02-14T06:09:50;100923.53;;;4.22;47.44
32875;BME280;40468;42.128;24.750;2023-02-14T06:11:23;100924.41;;;4.27;47.39
32875;BME280;40468;42.128;24.750;2023-02-14T06:12:54;100920.94;;;4.31;47.26
32875;BME280;40468;42.128;24.750;2023-02-14T06:14:26;100915.81;;;4.36;47.23
32875;BME280;40468;42.128;24.750;2023-02-14T06:15:58;100926.09;;;4.42;47.15
32875;BME280;40468;42.128;24.750;2023-02-14T06:17:29;100922.63;;;4.46;46.97
32875;BME280;40468;42.128;24.750;2023-02-14T06:19:01;100915.75;;;4.51;46.91
32875;BME280;40468;42.128;24.750;2023-02-14T06:20:32;100918.31;;;4.57;46.82
32875;BME280;40468;42.128;24.750;2023-02-14T06:22:05;100920.03;;;4.63;46.65
32875;BME280;40468;42.128;24.750;2023-02-14T06:23:36;100931.19;;;4.68;46.76
32875;BME280;40468;42.128;24.750;2023-02-14T06:25:08;100929.44;;;4.74;46.59
32875;BME280;40468;42.128;24.750;2023-02-14T06:26:41;100923.41;;;4.78;46.48
32875;BME280;40468;42.128;24.750;2023-02-14T06:28:12;100920.81;;;4.85;46.42
32875;BME280;40468;42.128;24.750;2023-02-14T06:29:44;100916.50;;;4.91;46.31
32875;BME280;40468;42.128;24.750;2023-02-14T06:31:16;100915.59;;;4.95;46.11
32875;BME280;40468;42.128;24.750;2023-02-14T06:32:48;100917.28;;;5.02;46.12
32875;BME280;40468;42.128;24.750;2023-02-14T06:34:20;100908.66;;;5.10;45.97
32875;BME280;40468;42.128;24.750;2023-02-14T06:35:52;100917.25;;;5.13;45.90
32875;BME280;40468;42.128;24.750;2023-02-14T06:37:23;100908.63;;;5.19;45.71
32875;BME280;40468;42.128;24.750;2023-02-14T06:38:55;100913.75;;;5.25;45.69
32875;BME280;40468;42.128;24.750;2023-02-14T06:40:27;100907.69;;;5.31;45.55
32875;BME280;40468;42.128;24.750;2023-02-14T06:41:59;100919.69;;;5.38;45.60
32875;BME280;40468;42.128;24.750;2023-02-14T06:43:31;100916.22;;;5.45;45.46
32875;BME280;40468;42.128;24.750;2023-02-14T06:45:03;100915.31;;;5.54;45.26
32875;BME280;40468;42.128;24.750;2023-02-14T06:46:34;100919.56;;;5.59;45.39
32875;BME280;40468;42.128;24.750;2023-02-14T06:48:06;100922.09;;;5.68;45.13
32875;BME280;40468;42.128;24.750;2023-02-14T06:49:37;100928.03;;;5.78;45.00
32875;BME280;40468;42.128;24.750;2023-02-14T06:51:09;100933.13;;;5.87;44.99
32875;BME280;40468;42.128;24.750;2023-02-14T06:52:41;100924.47;;;6.01;44.92
32875;BME280;40468;42.128;24.750;2023-02-14T06:54:13;100929.53;;;6.08;44.63
32875;BME280;40468;42.128;24.750;2023-02-14T06:55:45;100917.41;;;6.17;44.44
32875;BME280;40468;42.128;24.750;2023-02-14T06:57:18;100921.66;;;6.25;44.18
32875;BME280;40468;42.128;24.750;2023-02-14T06:58:49;100916.34;;;6.39;43.99
32875;BME280;40468;42.128;24.750;2023-02-14T07:00:21;100922.28;;;6.47;44.00
32875;BME280;40468;42.128;24.750;2023-02-14T07:01:53;100919.56;;;6.61;43.68
32875;BME280;40468;42.128;24.750;2023-02-14T07:03:24;100920.34;;;6.69;43.61
32875;BME280;40468;42.128;24.750;2023-02-14T07:04:56;100921.06;;;6.80;43.50
32875;BME280;40468;42.128;24.750;2023-02-14T07:06:28;100917.44;;;6.94;43.03
32875;BME280;40468;42.128;24.750;2023-02-14T07:07:59;100915.66;;;6.99;42.90
32875;BME280;40468;42.128;24.750;2023-02-14T07:09:31;100917.25;;;7.09;42.84
32875;BME280;40468;42.128;24.750;2023-02-14T07:11:02;100921.44;;;7.18;42.64
32875;BME280;40468;42.128;24.750;2023-02-14T07:12:35;100916.94;;;7.32;42.60
32875;BME280;40468;42.128;24.750;2023-02-14T07:14:08;100914.13;;;7.47;42.38
32875;BME280;40468;42.128;24.750;2023-02-14T07:15:40;100919.81;;;7.71;42.40
32875;BME280;40468;42.128;24.750;2023-02-14T07:17:11;100916.72;;;8.05;42.20
32875;BME280;40468;42.128;24.750;2023-02-14T07:18:43;100914.47;;;8.34;41.95
32875;BME280;40468;42.128;24.750;2023-02-14T07:20:14;100915.47;;;8.74;41.03
32875;BME280;40468;42.128;24.750;2023-02-14T07:21:47;100918.19;;;9.11;40.78
32875;BME280;40468;42.128;24.750;2023-02-14T07:23:19;100911.19;;;9.52;40.18
32875;BME280;40468;42.128;24.750;2023-02-14T07:24:50;100906.94;;;9.85;39.71
32875;BME280;40468;42.128;24.750;2023-02-14T07:26:22;100913.38;;;10.06;38.49
32875;BME280;40468;42.128;24.750;2023-02-14T07:27:55;100910.25;;;10.28;38.12
32875;BME280;40468;42.128;24.750;2023-02-14T07:29:27;100906.03;;;10.55;37.96
32875;BME280;40468;42.128;24.750;2023-02-14T07:30:58;100909.53;;;10.85;37.55
32875;BME280;40468;42.128;24.750;2023-02-14T07:32:30;100904.91;;;11.24;37.26
32875;BME280;40468;42.128;24.750;2023-02-14T07:34:02;100898.97;;;11.47;36.61
32875;BME280;40468;42.128;24.750;2023-02-14T07:35:33;100904.72;;;11.58;36.44
32875;BME280;40468;42.128;24.750;2023-02-14T07:37:05;100896.00;;;11.59;35.82
32875;BME280;40468;42.128;24.750;2023-02-14T07:38:37;100894.47;;;11.52;35.64
32875;BME280;40468;42.128;24.750;2023-02-14T07:40:09;100890.41;;;11.70;35.82
32875;BME280;40468;42.128;24.750;2023-02-14T07:41:40;100893.75;;;11.75;35.24
32875;BME280;40468;42.128;24.750;2023-02-14T07:43:13;100895.34;;;11.79;35.40
32875;BME280;40468;42.128;24.750;2023-02-14T07:44:45;100899.34;;;11.91;35.25
32875;BME280;40468;42.128;24.750;2023-02-14T07:46:16;100889.34;;;12.04;35.21
32875;BME280;40468;42.128;24.750;2023-02-14T07:47:48;100890.31;;;12.26;35.06
32875;BME280;40468;42.128;24.750;2023-02-14T07:49:20;100885.72;;;12.33;34.40
32875;BME280;40468;42.128;24.750;2023-02-14T07:50:52;100890.19;;;12.55;34.45
32875;BME280;40468;42.128;24.750;2023-02-14T07:52:25;100891.94;;;12.78;34.28
32875;BME280;40468;42.128;24.750;2023-02-14T07:53:57;100888.59;;;12.97;34.24
32875;BME280;40468;42.128;24.750;2023-02-14T07:55:28;100895.13;;;13.09;33.60
32875;BME280;40468;42.128;24.750;2023-02-14T07:57:00;100889.84;;;13.11;33.25
32875;BME280;40468;42.128;24.750;2023-02-14T07:58:33;100890.63;;;13.13;33.21
32875;BME280;40468;42.128;24.750;2023-02-14T08:00:05;100884.91;;;13.03;33.10
32875;BME280;40468;42.128;24.750;2023-02-14T08:01:37;100881.78;;;13.17;33.04
32875;BME280;40468;42.128;24.750;2023-02-14T08:03:08;100880.97;;;13.38;32.94
32875;BME280;40468;42.128;24.750;2023-02-14T08:04:40;100891.63;;;13.56;32.95
32875;BME280;40468;42.128;24.750;2023-02-14T08:06:12;100894.72;;;13.65;32.31
32875;BME280;40468;42.128;24.750;2023-02-14T08:07:43;100886.31;;;13.79;32.24
32875;BME280;40468;42.128;24.750;2023-02-14T08:09:16;100889.00;;;13.98;32.22
32875;BME280;40468;42.128;24.750;2023-02-14T08:10:53;100898.59;;;14.20;31.93
32875;BME280;40468;42.128;24.750;2023-02-14T08:12:25;100898.91;;;14.12;31.37
32875;BME280;40468;42.128;24.750;2023-02-14T08:14:15;100899.16;;;14.26;31.72
32875;BME280;40468;42.128;24.750;2023-02-14T08:15:47;100907.81;;;14.08;30.95
32875;BME280;40468;42.128;24.750;2023-02-14T08:17:38;100896.44;;;13.87;31.53
32875;BME280;40468;42.128;24.750;2023-02-14T08:19:10;100908.31;;;13.96;31.21